BXTK1: Spring River at Baxter Springs

Data processed at Thu May 23 2019 23:50


All information presented herein is the property of the government of the United States of America and may be revised or deleted at any time without prior notice.
Dissemination of this information without the expressed written consent of the Public Affairs Office, Tulsa District U.S. Army Corps of Engineers is strictly prohibited.
These data are gathered electronically and, as presented, have not undergone any form of quality control. These data are not guaranteed to be valid or correct.
Go to home page.
Go to station list.
Go to home page.

Upstream stations:

Downstream station:
Previous Day
Next Day
Current Day
    
SHEF ID:       BXTK1     SPRING R NR BAXTER SPRINGS, KS
STATION TYPE:  

               PRECIP     STAGE  RIV-FLOW  BAT-LOAD
                   in        ft       cfs      volt
              Ccp-Rev   Ccp-Rev   Ccp-Rev   Ccp-Rev
(US/Central)
05/23 00:00      0.00     22.68     70954     12.77
05/23 01:00      1.04     22.90     72164     12.71
05/23 02:00      0.09     23.00     72717     12.71
05/23 03:00      0.12     23.08     73161     12.65
05/23 04:00      0.21     23.40     74947     12.65
05/23 05:00      1.38     23.62     76186     12.65
05/23 06:00      1.21     23.97     78173     12.65
05/23 07:00      0.15     24.47     81051     12.65
05/23 08:00      0.01     25.04     84384     12.71
05/23 09:00      0.00     25.63     87894     12.89
05/23 10:00      0.00     26.08     90612     12.77
05/23 11:00      0.00     26.47     92995     12.95
05/23 12:00      0.00     26.73     94599     13.53
05/23 13:00      0.00     26.81     95094     13.83
05/23 14:00      0.00     26.69     94351     14.12
05/23 15:00      0.00     26.93     95840     14.06
05/23 16:00      0.00     26.92     95778     14.00
05/23 17:00      0.00     26.85     95343     13.77
05/23 18:00      0.00     26.80     95032     13.07
05/23 19:00      0.00     26.65     94104     12.89
05/23 20:00      0.00     26.38     92443     12.77
05/23 21:00      0.00     26.25     91648     12.83
05/23 22:00      0.00     25.94     89763     12.83
05/23 23:00      0.00     25.86     89279     12.77